Time;durP1;ratioP1;P1;durP2;ratioP2;P2;SDS_P1;SDS_P2;PMS_P1;PMS_P2;Temp;Humidity;BMP_temperature;BMP_pressure;BME280_temperature;BME280_humidity;BME280_pressure;Samples;Min_cycle;Max_cycle;Signal;HPM_P1;HPM_P2
2022/01/01 00:02:08;;;;;;;18.55;12.30;;;;;;;;;;5072198;28;20514;-49
2022/01/01 00:04:34;;;;;;;16.45;11.82;;;;;;;;;;5072335;28;20115;-49
2022/01/01 00:07:00;;;;;;;17.17;13.18;;;;;;;;;;5060587;28;20020;-52
2022/01/01 00:09:33;;;;;;;19.77;12.50;;;;;;;;;;5060903;28;20025;-48
2022/01/01 00:11:59;;;;;;;17.45;11.75;;;;;;;;;;5061913;28;20500;-49
2022/01/01 00:14:25;;;;;;;16.88;11.73;;;;;;;;;;5071900;28;20111;-48
2022/01/01 00:16:51;;;;;;;15.05;11.32;;;;;;;;;;5067661;28;20224;-48
2022/01/01 00:19:17;;;;;;;15.65;11.60;;;;;;;;;;5071074;28;20586;-49
2022/01/01 00:21:44;;;;;;;18.02;12.45;;;;;;;;;;5071210;28;20130;-50
2022/01/01 00:24:10;;;;;;;17.08;12.07;;;;;;;;;;5071842;28;20032;-49
2022/01/01 00:26:36;;;;;;;16.65;10.82;;;;;;;;;;5071015;28;20446;-52
2022/01/01 00:29:03;;;;;;;14.48;10.70;;;;;;;;;;5071945;28;20172;-52
2022/01/01 00:31:29;;;;;;;17.70;11.35;;;;;;;;;;5073286;28;20032;-49
2022/01/01 00:33:55;;;;;;;14.15;10.85;;;;;;;;;;5075070;28;20491;-48
2022/01/01 00:36:21;;;;;;;15.35;11.00;;;;;;;;;;5075277;28;20131;-49
2022/01/01 00:38:47;;;;;;;17.65;11.15;;;;;;;;;;5075033;28;20032;-50
2022/01/01 00:41:13;;;;;;;15.30;10.65;;;;;;;;;;5075485;28;20025;-49
2022/01/01 00:43:39;;;;;;;16.60;11.13;;;;;;;;;;5074881;28;20532;-50
2022/01/01 00:46:05;;;;;;;17.13;10.73;;;;;;;;;;5075506;28;20036;-48
2022/01/01 00:48:32;;;;;;;16.52;9.73;;;;;;;;;;5063863;28;20035;-49
2022/01/01 00:50:58;;;;;;;15.98;10.20;;;;;;;;;;5074590;28;20033;-49
2022/01/01 00:53:24;;;;;;;15.52;10.57;;;;;;;;;;5073530;28;20020;-48
2022/01/01 00:55:50;;;;;;;16.08;10.73;;;;;;;;;;5063633;28;20096;-49
2022/01/01 00:58:16;;;;;;;15.50;10.60;;;;;;;;;;5062730;28;21086;-48
2022/01/01 01:00:42;;;;;;;15.32;9.45;;;;;;;;;;5062971;28;20029;-50
2022/01/01 01:03:11;;;;;;;13.65;9.63;;;;;;;;;;5064518;28;20020;-50
2022/01/01 01:05:39;;;;;;;14.13;10.23;;;;;;;;;;5064433;28;20066;-56
2022/01/01 01:08:08;;;;;;;13.63;9.15;;;;;;;;;;5063369;28;20060;-48
2022/01/01 01:10:35;;;;;;;15.07;9.93;;;;;;;;;;5062927;28;20031;-47
2022/01/01 01:13:01;;;;;;;15.93;10.02;;;;;;;;;;5064066;28;20048;-49
2022/01/01 01:15:29;;;;;;;11.60;8.93;;;;;;;;;;5063322;28;20017;-49
2022/01/01 01:17:57;;;;;;;12.88;9.20;;;;;;;;;;5062106;28;20070;-48
2022/01/01 01:20:23;;;;;;;14.70;8.63;;;;;;;;;;5062608;28;20025;-52
2022/01/01 01:22:49;;;;;;;13.07;9.07;;;;;;;;;;5064169;28;20358;-48
2022/01/01 01:25:15;;;;;;;11.25;9.07;;;;;;;;;;5062372;28;20035;-52
2022/01/01 01:27:41;;;;;;;13.05;9.02;;;;;;;;;;5063861;28;20019;-49
2022/01/01 01:30:09;;;;;;;12.32;9.00;;;;;;;;;;5063119;28;20155;-49
2022/01/01 01:32:36;;;;;;;13.55;9.40;;;;;;;;;;5062353;28;20024;-51
2022/01/01 01:35:03;;;;;;;11.50;8.20;;;;;;;;;;5061788;28;20432;-52
2022/01/01 01:37:29;;;;;;;12.82;8.32;;;;;;;;;;5063016;28;20043;-48
2022/01/01 01:39:58;;;;;;;11.45;8.65;;;;;;;;;;5063298;28;20029;-50
2022/01/01 01:42:26;;;;;;;12.70;8.73;;;;;;;;;;5062427;28;20382;-49
2022/01/01 01:44:54;;;;;;;11.68;8.10;;;;;;;;;;5061636;28;20514;-52
2022/01/01 01:47:28;;;;;;;12.23;8.27;;;;;;;;;;5064113;28;20468;-49
2022/01/01 01:49:54;;;;;;;12.48;8.48;;;;;;;;;;5063175;28;20029;-52
2022/01/01 01:52:21;;;;;;;12.77;9.40;;;;;;;;;;5061729;28;20027;-48
2022/01/01 01:54:48;;;;;;;13.20;8.93;;;;;;;;;;5062459;28;20013;-48
2022/01/01 01:57:14;;;;;;;11.68;8.95;;;;;;;;;;5063719;28;20032;-49
2022/01/01 01:59:43;;;;;;;11.38;8.32;;;;;;;;;;5061389;28;20379;-49
2022/01/01 02:02:10;;;;;;;12.90;9.32;;;;;;;;;;5063137;28;20446;-49
2022/01/01 02:04:36;;;;;;;13.52;9.57;;;;;;;;;;5064325;28;20021;-47
2022/01/01 02:07:02;;;;;;;13.63;8.88;;;;;;;;;;5061123;28;20060;-47
2022/01/01 02:09:29;;;;;;;12.32;9.40;;;;;;;;;;5062626;28;20480;-49
2022/01/01 02:11:55;;;;;;;12.90;8.43;;;;;;;;;;5060092;28;20056;-47
2022/01/01 02:14:33;;;;;;;13.15;9.07;;;;;;;;;;5053960;28;20032;-48
2022/01/01 02:19:26;;;;;;;12.18;9.45;;;;;;;;;;5053697;28;20037;-50
2022/01/01 02:21:58;;;;;;;11.93;9.70;;;;;;;;;;5053133;28;20056;-48
2022/01/01 02:24:25;;;;;;;13.25;9.23;;;;;;;;;;5053559;28;20032;-49
2022/01/01 02:26:51;;;;;;;11.93;8.60;;;;;;;;;;5035119;28;20021;-48
2022/01/01 02:29:17;;;;;;;15.30;10.60;;;;;;;;;;5053460;28;20036;-48
2022/01/01 02:31:43;;;;;;;10.98;9.15;;;;;;;;;;5052767;28;20114;-47
2022/01/01 02:34:10;;;;;;;14.15;9.52;;;;;;;;;;5053404;28;20035;-49
2022/01/01 02:36:38;;;;;;;13.70;9.23;;;;;;;;;;5053189;28;20075;-49
2022/01/01 02:39:17;;;;;;;13.35;9.70;;;;;;;;;;5052948;28;20029;-48
2022/01/01 02:41:44;;;;;;;12.95;9.00;;;;;;;;;;5052716;28;20033;-48
2022/01/01 02:44:10;;;;;;;14.93;10.75;;;;;;;;;;5053278;28;20033;-47
2022/01/01 02:46:36;;;;;;;13.85;9.52;;;;;;;;;;5053177;28;20488;-47
2022/01/01 02:49:03;;;;;;;14.55;9.90;;;;;;;;;;5052649;28;20036;-48
2022/01/01 02:51:29;;;;;;;11.77;8.75;;;;;;;;;;5052839;28;20489;-47
2022/01/01 02:53:55;;;;;;;11.95;9.45;;;;;;;;;;5052517;28;20091;-48
2022/01/01 02:56:21;;;;;;;13.52;9.40;;;;;;;;;;5052110;28;20036;-49
2022/01/01 02:58:47;;;;;;;15.13;8.98;;;;;;;;;;5052519;28;20029;-48
2022/01/01 03:01:13;;;;;;;13.52;9.82;;;;;;;;;;5053046;28;20124;-48
2022/01/01 03:03:39;;;;;;;13.32;9.63;;;;;;;;;;5052958;28;20021;-48
2022/01/01 03:06:05;;;;;;;13.25;9.55;;;;;;;;;;5052861;28;20025;-49
2022/01/01 03:08:32;;;;;;;14.57;9.40;;;;;;;;;;5052979;28;20068;-48
2022/01/01 03:10:58;;;;;;;14.98;9.70;;;;;;;;;;5052123;28;20024;-49
2022/01/01 03:13:24;;;;;;;13.07;8.95;;;;;;;;;;5052773;28;20044;-47
2022/01/01 03:15:50;;;;;;;10.35;8.38;;;;;;;;;;5052244;28;20114;-48
2022/01/01 03:18:16;;;;;;;10.77;8.07;;;;;;;;;;5052557;28;20033;-48
2022/01/01 03:20:42;;;;;;;11.20;8.65;;;;;;;;;;5052238;28;20039;-48
2022/01/01 03:23:08;;;;;;;11.70;9.07;;;;;;;;;;5056381;28;20044;-47
2022/01/01 03:25:40;;;;;;;12.25;8.18;;;;;;;;;;5072544;28;20449;-48
2022/01/01 03:28:06;;;;;;;11.90;8.98;;;;;;;;;;5072299;28;20095;-51
2022/01/01 03:30:32;;;;;;;11.48;8.20;;;;;;;;;;5072585;28;20027;-48
2022/01/01 03:32:58;;;;;;;11.15;8.35;;;;;;;;;;5071808;28;20020;-49
2022/01/01 03:35:25;;;;;;;11.05;8.52;;;;;;;;;;5072597;28;20082;-48
2022/01/01 03:37:52;;;;;;;11.68;7.70;;;;;;;;;;5071852;28;20052;-49
2022/01/01 03:40:18;;;;;;;12.48;7.53;;;;;;;;;;5072207;28;20090;-50
2022/01/01 03:42:44;;;;;;;10.85;8.38;;;;;;;;;;5071826;28;20032;-48
2022/01/01 03:45:10;;;;;;;11.60;8.70;;;;;;;;;;5072555;28;20060;-48
2022/01/01 03:47:36;;;;;;;11.07;8.25;;;;;;;;;;5072228;28;20059;-47
2022/01/01 03:50:02;;;;;;;11.48;7.40;;;;;;;;;;5071785;28;20481;-48
2022/01/01 03:52:29;;;;;;;9.60;7.40;;;;;;;;;;5072173;28;20381;-48
2022/01/01 03:54:55;;;;;;;9.80;7.13;;;;;;;;;;5071732;28;20024;-49
2022/01/01 03:57:21;;;;;;;11.10;8.07;;;;;;;;;;5072098;28;20092;-48
2022/01/01 03:59:47;;;;;;;13.85;8.00;;;;;;;;;;5071601;28;20024;-49
2022/01/01 04:02:14;;;;;;;10.52;7.35;;;;;;;;;;5072451;28;20131;-48
2022/01/01 04:04:40;;;;;;;9.43;7.40;;;;;;;;;;5071918;28;20481;-50
2022/01/01 04:07:08;;;;;;;10.38;7.43;;;;;;;;;;5073625;28;20098;-49
2022/01/01 04:09:34;;;;;;;9.60;7.63;;;;;;;;;;5076420;28;20047;-52
2022/01/01 04:12:00;;;;;;;9.38;6.95;;;;;;;;;;5075625;28;20107;-48
2022/01/01 04:14:26;;;;;;;10.45;7.35;;;;;;;;;;5075856;28;20430;-50
2022/01/01 04:16:53;;;;;;;9.00;6.47;;;;;;;;;;5075620;28;20020;-49
2022/01/01 04:19:23;;;;;;;10.02;7.03;;;;;;;;;;5076017;28;20090;-48
2022/01/01 04:21:49;;;;;;;10.85;7.55;;;;;;;;;;5075604;28;20020;-51
2022/01/01 04:24:15;;;;;;;10.38;8.02;;;;;;;;;;5062586;28;20390;-49
2022/01/01 04:26:42;;;;;;;8.85;6.93;;;;;;;;;;5055546;28;20482;-50
2022/01/01 04:29:08;;;;;;;10.40;7.65;;;;;;;;;;5055628;28;20071;-50
2022/01/01 04:31:34;;;;;;;11.10;7.55;;;;;;;;;;5055696;28;20021;-48
2022/01/01 04:34:00;;;;;;;10.07;7.40;;;;;;;;;;5055227;28;20033;-49
2022/01/01 04:36:26;;;;;;;10.40;7.43;;;;;;;;;;5055610;28;20047;-48
2022/01/01 04:38:52;;;;;;;9.88;7.50;;;;;;;;;;5055096;28;20037;-49
2022/01/01 04:41:18;;;;;;;9.30;6.72;;;;;;;;;;5055400;28;20120;-48
2022/01/01 04:43:46;;;;;;;9.32;6.78;;;;;;;;;;5055367;28;20033;-51
2022/01/01 04:46:12;;;;;;;11.18;8.00;;;;;;;;;;5055698;28;20483;-49
2022/01/01 04:48:38;;;;;;;9.77;7.53;;;;;;;;;;5055345;28;20021;-51
2022/01/01 04:51:06;;;;;;;9.45;7.43;;;;;;;;;;5054971;28;20382;-48
2022/01/01 04:53:33;;;;;;;12.07;7.78;;;;;;;;;;5055489;28;20021;-48
2022/01/01 04:56:03;;;;;;;9.70;7.70;;;;;;;;;;5054840;28;20049;-48
2022/01/01 04:58:29;;;;;;;9.23;6.85;;;;;;;;;;5055357;28;20021;-51
2022/01/01 05:00:55;;;;;;;8.55;6.57;;;;;;;;;;5054793;28;20055;-50
2022/01/01 05:03:21;;;;;;;10.45;7.63;;;;;;;;;;5055214;28;20017;-48
2022/01/01 05:05:47;;;;;;;10.02;7.25;;;;;;;;;;5054721;28;20025;-47
2022/01/01 05:08:13;;;;;;;12.00;7.38;;;;;;;;;;5054757;28;20429;-50
2022/01/01 05:10:39;;;;;;;9.32;7.60;;;;;;;;;;5054812;28;20021;-48
2022/01/01 05:13:05;;;;;;;10.70;7.45;;;;;;;;;;5054420;28;20059;-48
2022/01/01 05:15:31;;;;;;;10.18;7.10;;;;;;;;;;5055429;28;20480;-52
2022/01/01 05:17:57;;;;;;;10.18;7.25;;;;;;;;;;5053208;28;20047;-49
2022/01/01 05:20:23;;;;;;;9.70;7.00;;;;;;;;;;5054923;28;20025;-47
2022/01/01 05:22:49;;;;;;;9.52;7.40;;;;;;;;;;5055594;28;20017;-49
2022/01/01 05:25:15;;;;;;;11.20;7.43;;;;;;;;;;5074940;28;20039;-47
2022/01/01 05:27:42;;;;;;;8.63;6.72;;;;;;;;;;5074786;28;20439;-49
2022/01/01 05:30:09;;;;;;;9.93;7.13;;;;;;;;;;5074098;28;20029;-48
2022/01/01 05:32:35;;;;;;;9.43;7.38;;;;;;;;;;5074745;28;20081;-48
2022/01/01 05:35:01;;;;;;;9.38;7.03;;;;;;;;;;5074100;28;20040;-48
2022/01/01 05:37:27;;;;;;;9.85;6.68;;;;;;;;;;5074660;28;20049;-48
2022/01/01 05:39:53;;;;;;;9.18;6.57;;;;;;;;;;5073840;28;20119;-48
2022/01/01 05:42:19;;;;;;;8.95;6.65;;;;;;;;;;5074649;28;20113;-49
2022/01/01 05:44:45;;;;;;;9.27;6.88;;;;;;;;;;5074268;28;20174;-56
2022/01/01 05:47:11;;;;;;;10.10;7.53;;;;;;;;;;5074514;28;20037;-48
2022/01/01 05:49:37;;;;;;;10.38;7.03;;;;;;;;;;5074575;28;20021;-48
2022/01/01 05:52:03;;;;;;;10.10;7.30;;;;;;;;;;5073830;28;20450;-48
2022/01/01 05:54:29;;;;;;;9.15;6.05;;;;;;;;;;5074107;28;20382;-47
2022/01/01 05:56:55;;;;;;;8.82;6.75;;;;;;;;;;5073777;28;20462;-49
2022/01/01 05:59:21;;;;;;;8.30;6.35;;;;;;;;;;5073897;28;20076;-50
2022/01/01 06:01:47;;;;;;;8.32;6.50;;;;;;;;;;5073952;28;20032;-48
2022/01/01 06:04:13;;;;;;;8.95;6.50;;;;;;;;;;5074108;28;20029;-49
2022/01/01 06:06:39;;;;;;;8.15;6.60;;;;;;;;;;5073872;28;20032;-48
2022/01/01 06:09:05;;;;;;;10.35;6.70;;;;;;;;;;5072596;28;20146;-48
2022/01/01 06:11:31;;;;;;;10.63;7.13;;;;;;;;;;5066049;28;20025;-46
2022/01/01 06:13:57;;;;;;;7.70;6.15;;;;;;;;;;5076188;28;20024;-51
2022/01/01 06:16:23;;;;;;;7.82;5.47;;;;;;;;;;5095342;28;20027;-49
2022/01/01 06:18:49;;;;;;;9.82;6.25;;;;;;;;;;5094361;28;20024;-50
2022/01/01 06:21:15;;;;;;;7.47;5.38;;;;;;;;;;5093747;28;20485;-48
2022/01/01 06:23:41;;;;;;;7.13;5.65;;;;;;;;;;5085402;28;20039;-48
2022/01/01 06:26:08;;;;;;;7.32;5.35;;;;;;;;;;5072862;28;20500;-49
2022/01/01 06:28:34;;;;;;;6.60;5.32;;;;;;;;;;5070377;28;20043;-50
2022/01/01 06:31:01;;;;;;;7.35;5.65;;;;;;;;;;5066262;28;20025;-52
2022/01/01 06:33:27;;;;;;;7.43;5.63;;;;;;;;;;5062082;28;20028;-48
2022/01/01 06:35:55;;;;;;;7.38;5.15;;;;;;;;;;5062990;28;20025;-48
2022/01/01 06:38:21;;;;;;;7.25;5.53;;;;;;;;;;5058356;28;20052;-48
2022/01/01 06:40:47;;;;;;;7.60;5.22;;;;;;;;;;5058636;28;20075;-55
2022/01/01 06:43:15;;;;;;;6.28;4.88;;;;;;;;;;5058448;28;20481;-49
2022/01/01 06:45:41;;;;;;;6.50;4.68;;;;;;;;;;5061853;28;20430;-51
2022/01/01 06:48:07;;;;;;;8.00;5.50;;;;;;;;;;5062363;28;20044;-51
2022/01/01 06:50:33;;;;;;;7.82;5.05;;;;;;;;;;5062519;28;20416;-51
2022/01/01 06:52:59;;;;;;;6.65;4.97;;;;;;;;;;5060631;28;20429;-49
2022/01/01 06:55:26;;;;;;;6.68;5.38;;;;;;;;;;5061329;28;20021;-50
2022/01/01 06:57:52;;;;;;;6.20;4.68;;;;;;;;;;5062227;28;20116;-50
2022/01/01 07:00:18;;;;;;;6.13;4.38;;;;;;;;;;5062286;28;20046;-51
2022/01/01 07:02:45;;;;;;;6.70;5.00;;;;;;;;;;5061629;28;20389;-50
2022/01/01 07:05:12;;;;;;;6.10;4.28;;;;;;;;;;5061917;28;20029;-49
2022/01/01 07:07:38;;;;;;;5.53;5.00;;;;;;;;;;5057645;28;20031;-52
2022/01/01 07:10:08;;;;;;;5.88;4.60;;;;;;;;;;5034659;28;20062;-50
2022/01/01 07:12:34;;;;;;;5.88;4.63;;;;;;;;;;5053311;28;20025;-50
2022/01/01 07:15:00;;;;;;;7.10;4.65;;;;;;;;;;5069572;28;20063;-52
2022/01/01 07:17:26;;;;;;;5.68;3.88;;;;;;;;;;5072807;28;20059;-50
2022/01/01 07:19:52;;;;;;;5.25;4.18;;;;;;;;;;5071683;28;20535;-50
2022/01/01 07:22:18;;;;;;;5.90;3.97;;;;;;;;;;5054687;28;20123;-50
2022/01/01 07:24:49;;;;;;;7.50;4.38;;;;;;;;;;5055710;28;20100;-50
2022/01/01 07:27:15;;;;;;;6.47;4.30;;;;;;;;;;5052667;28;20481;-47
2022/01/01 07:29:41;;;;;;;5.50;3.92;;;;;;;;;;5052559;28;20068;-49
2022/01/01 07:32:07;;;;;;;5.97;4.25;;;;;;;;;;5052123;28;20031;-46
2022/01/01 07:34:33;;;;;;;4.78;4.05;;;;;;;;;;5052317;28;20021;-49
2022/01/01 07:36:59;;;;;;;6.47;4.55;;;;;;;;;;5051683;28;20136;-47
2022/01/01 07:39:25;;;;;;;5.03;4.13;;;;;;;;;;5052412;28;20112;-49
2022/01/01 07:41:51;;;;;;;5.80;4.30;;;;;;;;;;5051157;28;20025;-46
2022/01/01 07:44:17;;;;;;;6.95;4.25;;;;;;;;;;5068481;28;20032;-48
2022/01/01 07:46:43;;;;;;;5.32;3.72;;;;;;;;;;5072092;28;20386;-47
2022/01/01 07:49:09;;;;;;;7.38;4.53;;;;;;;;;;5071678;28;20494;-49
2022/01/01 07:51:35;;;;;;;5.45;3.72;;;;;;;;;;5071914;28;20024;-48
2022/01/01 07:54:01;;;;;;;6.18;4.40;;;;;;;;;;5082725;28;20024;-51
2022/01/01 07:56:27;;;;;;;5.80;4.03;;;;;;;;;;5092249;28;20081;-49
2022/01/01 07:58:53;;;;;;;4.65;3.90;;;;;;;;;;5091570;28;20081;-50
2022/01/01 08:01:19;;;;;;;4.82;3.65;;;;;;;;;;5092270;28;20027;-48
2022/01/01 08:03:49;;;;;;;7.13;4.22;;;;;;;;;;5092412;28;20035;-53
2022/01/01 08:06:15;;;;;;;5.82;4.30;;;;;;;;;;5092254;28;20020;-49
2022/01/01 08:08:42;;;;;;;4.40;3.60;;;;;;;;;;5092399;28;20028;-48
2022/01/01 08:11:08;;;;;;;5.70;3.83;;;;;;;;;;5091554;28;20261;-48
2022/01/01 08:13:36;;;;;;;4.97;3.38;;;;;;;;;;5071502;28;20174;-47
2022/01/01 08:16:02;;;;;;;6.53;3.85;;;;;;;;;;5056317;28;20008;-49
2022/01/01 08:18:31;;;;;;;4.35;3.80;;;;;;;;;;5067546;28;20036;-47
2022/01/01 08:20:57;;;;;;;5.40;3.50;;;;;;;;;;5072373;28;20027;-48
2022/01/01 08:23:23;;;;;;;4.80;3.75;;;;;;;;;;5066037;28;20029;-46
2022/01/01 08:25:50;;;;;;;7.18;4.03;;;;;;;;;;5052152;28;20025;-49
2022/01/01 08:28:15;;;;;;;3.97;3.22;;;;;;;;;;5052091;28;20432;-48
2022/01/01 08:30:41;;;;;;;5.60;4.05;;;;;;;;;;5051784;28;20035;-48
2022/01/01 08:33:07;;;;;;;3.83;3.10;;;;;;;;;;5051155;28;20017;-50
2022/01/01 08:35:35;;;;;;;5.65;4.03;;;;;;;;;;5051847;28;20029;-50
2022/01/01 08:38:03;;;;;;;5.70;4.10;;;;;;;;;;5050767;28;20114;-49
2022/01/01 08:40:29;;;;;;;4.75;3.40;;;;;;;;;;5052060;28;20456;-46
2022/01/01 08:42:55;;;;;;;5.43;3.78;;;;;;;;;;5051136;28;20025;-46
2022/01/01 08:45:21;;;;;;;6.43;3.40;;;;;;;;;;5055702;28;20386;-47
2022/01/01 08:47:47;;;;;;;5.55;3.72;;;;;;;;;;5071574;28;20036;-46
2022/01/01 08:50:14;;;;;;;7.45;3.70;;;;;;;;;;5071528;28;20028;-46
2022/01/01 08:52:40;;;;;;;4.97;3.90;;;;;;;;;;5072884;28;20116;-46
2022/01/01 08:55:06;;;;;;;6.47;4.00;;;;;;;;;;5074900;28;20035;-47
2022/01/01 08:57:32;;;;;;;4.30;3.58;;;;;;;;;;5057365;28;20025;-52
2022/01/01 08:59:59;;;;;;;5.15;3.70;;;;;;;;;;5074816;28;20064;-47
2022/01/01 09:02:25;;;;;;;5.10;3.80;;;;;;;;;;5075019;28;20032;-46
2022/01/01 09:04:51;;;;;;;5.30;3.75;;;;;;;;;;5075073;28;20062;-46
2022/01/01 09:07:17;;;;;;;8.57;4.18;;;;;;;;;;5075171;28;20036;-46
2022/01/01 09:09:43;;;;;;;6.05;4.03;;;;;;;;;;5075149;28;20120;-47
2022/01/01 09:12:10;;;;;;;5.13;3.80;;;;;;;;;;5074415;28;20032;-46
2022/01/01 09:14:36;;;;;;;6.30;3.63;;;;;;;;;;5075123;28;20060;-47
2022/01/01 09:17:03;;;;;;;5.40;4.18;;;;;;;;;;5072143;28;20024;-46
2022/01/01 09:19:29;;;;;;;6.53;4.40;;;;;;;;;;5074632;28;20039;-50
2022/01/01 09:21:55;;;;;;;5.50;4.13;;;;;;;;;;5068242;28;20027;-46
2022/01/01 09:24:21;;;;;;;5.47;4.32;;;;;;;;;;5061838;28;20488;-51
2022/01/01 09:26:47;;;;;;;4.57;3.50;;;;;;;;;;5063927;28;20024;-48
2022/01/01 09:29:13;;;;;;;6.53;4.45;;;;;;;;;;5062695;28;20031;-46
2022/01/01 09:31:40;;;;;;;6.15;3.58;;;;;;;;;;5062477;28;20052;-46
2022/01/01 09:34:06;;;;;;;8.43;3.90;;;;;;;;;;5062089;28;20106;-47
2022/01/01 09:36:33;;;;;;;5.78;3.25;;;;;;;;;;5063042;28;20047;-47
2022/01/01 09:38:59;;;;;;;5.65;3.17;;;;;;;;;;5063596;28;20057;-45
2022/01/01 09:41:25;;;;;;;5.55;3.72;;;;;;;;;;5062266;28;20053;-47
2022/01/01 09:43:53;;;;;;;4.60;3.88;;;;;;;;;;5063174;28;20385;-46
2022/01/01 09:46:19;;;;;;;5.07;3.67;;;;;;;;;;5063293;28;20050;-47
2022/01/01 09:48:45;;;;;;;6.25;3.90;;;;;;;;;;5061947;28;20378;-48
2022/01/01 09:51:11;;;;;;;4.03;3.45;;;;;;;;;;5062606;28;20082;-47
2022/01/01 09:53:37;;;;;;;4.82;3.30;;;;;;;;;;5063677;28;20024;-46
2022/01/01 09:56:05;;;;;;;5.07;3.65;;;;;;;;;;5061347;28;20425;-49
2022/01/01 09:58:34;;;;;;;4.22;3.05;;;;;;;;;;5063040;28;20024;-47
2022/01/01 10:01:02;;;;;;;5.88;3.47;;;;;;;;;;5063313;28;20439;-46
2022/01/01 10:03:36;;;;;;;5.00;3.05;;;;;;;;;;5062084;28;20009;-46
2022/01/01 10:06:08;;;;;;;5.32;3.53;;;;;;;;;;5062859;28;20442;-51
2022/01/01 10:08:36;;;;;;;5.72;2.97;;;;;;;;;;5063067;28;20037;-50
2022/01/01 10:11:02;;;;;;;3.97;2.63;;;;;;;;;;5061147;28;20021;-50
2022/01/01 10:13:36;;;;;;;4.43;3.25;;;;;;;;;;5062995;28;20500;-46
2022/01/01 10:16:03;;;;;;;5.55;3.13;;;;;;;;;;5060596;28;20024;-46
2022/01/01 10:18:30;;;;;;;4.68;3.30;;;;;;;;;;5062835;28;20354;-48
2022/01/01 10:21:04;;;;;;;4.13;3.22;;;;;;;;;;5062482;28;20021;-51
2022/01/01 10:23:31;;;;;;;3.40;2.50;;;;;;;;;;5060757;28;20020;-46
2022/01/01 10:29:02;;;;;;;4.45;3.25;;;;;;;;;;5062089;28;20063;-47
2022/01/01 10:31:28;;;;;;;3.38;2.67;;;;;;;;;;5062131;28;20029;-47
2022/01/01 10:33:54;;;;;;;3.58;2.95;;;;;;;;;;5072124;28;20032;-51
2022/01/01 10:36:22;;;;;;;5.90;3.15;;;;;;;;;;5069734;28;20048;-47
2022/01/01 10:38:48;;;;;;;4.85;2.72;;;;;;;;;;5073275;28;20111;-46
2022/01/01 10:41:16;;;;;;;5.30;2.78;;;;;;;;;;5072432;28;20477;-47
2022/01/01 10:43:43;;;;;;;3.60;2.55;;;;;;;;;;5073389;28;20104;-52
2022/01/01 10:46:13;;;;;;;3.90;2.83;;;;;;;;;;5072822;28;20086;-45
2022/01/01 10:48:52;;;;;;;9.07;3.58;;;;;;;;;;5069907;28;20040;-55
2022/01/01 10:51:19;;;;;;;8.95;3.20;;;;;;;;;;5072394;28;20107;-48
2022/01/01 10:53:45;;;;;;;4.32;3.00;;;;;;;;;;5073003;28;20032;-46
2022/01/01 10:56:22;;;;;;;3.92;2.65;;;;;;;;;;5072636;28;20028;-47
2022/01/01 10:58:58;;;;;;;5.57;2.95;;;;;;;;;;5073282;28;20030;-46
2022/01/01 11:01:24;;;;;;;4.80;3.25;;;;;;;;;;5074644;28;20046;-46
2022/01/01 11:03:54;;;;;;;4.93;3.05;;;;;;;;;;5055556;28;20024;-46
2022/01/01 11:06:20;;;;;;;5.80;3.47;;;;;;;;;;5072895;28;20116;-48
2022/01/01 11:08:47;;;;;;;6.53;3.55;;;;;;;;;;5073145;28;20115;-49
2022/01/01 11:11:14;;;;;;;4.07;2.70;;;;;;;;;;5071983;28;20021;-47
2022/01/01 11:13:40;;;;;;;7.22;3.22;;;;;;;;;;5072713;28;20028;-47
2022/01/01 11:16:06;;;;;;;6.20;2.83;;;;;;;;;;5065198;28;20028;-46
2022/01/01 11:18:33;;;;;;;7.85;2.70;;;;;;;;;;5052514;28;20052;-45
2022/01/01 11:21:00;;;;;;;7.82;3.10;;;;;;;;;;5051607;28;20500;-43
2022/01/01 11:23:26;;;;;;;10.85;3.70;;;;;;;;;;5052625;28;20083;-48
2022/01/01 11:25:54;;;;;;;9.02;2.85;;;;;;;;;;5052389;28;20021;-47
2022/01/01 11:28:21;;;;;;;9.90;3.30;;;;;;;;;;5052070;28;20017;-47
2022/01/01 11:30:52;;;;;;;8.68;3.35;;;;;;;;;;5052340;28;20040;-46
2022/01/01 11:33:19;;;;;;;8.93;3.42;;;;;;;;;;5052241;28;20366;-46
2022/01/01 11:35:51;;;;;;;7.80;3.55;;;;;;;;;;5052220;28;20101;-48
2022/01/01 11:38:17;;;;;;;;;;;;;;;;;;5052600;28;20061;-46
2022/01/01 11:40:46;;;;;;;10.70;3.55;;;;;;;;;;5052225;28;20430;-47
2022/01/01 11:43:31;;;;;;;7.57;3.22;;;;;;;;;;5051847;28;20025;-46
2022/01/01 11:45:58;;;;;;;4.68;3.45;;;;;;;;;;5051551;28;20032;-54
2022/01/01 11:48:36;;;;;;;6.07;3.15;;;;;;;;;;5052096;28;20489;-50
2022/01/01 11:51:21;;;;;;;6.03;2.85;;;;;;;;;;5051453;28;20575;-46
2022/01/01 11:54:19;;;;;;;13.40;3.58;;;;;;;;;;5052352;28;20029;-49
2022/01/01 11:56:49;;;;;;;14.82;3.90;;;;;;;;;;4997682;28;20393;-48
2022/01/01 11:59:23;;;;;;;6.90;3.70;;;;;;;;;;5051407;28;20486;-47
2022/01/01 12:01:50;;;;;;;7.95;2.90;;;;;;;;;;5052218;28;20025;-47
2022/01/01 12:04:35;;;;;;;6.15;2.67;;;;;;;;;;5051456;28;20025;-48
2022/01/01 12:07:11;;;;;;;6.50;2.53;;;;;;;;;;5051720;28;20072;-48
2022/01/01 12:09:55;;;;;;;4.30;2.72;;;;;;;;;;5052115;28;20036;-46
2022/01/01 12:12:39;;;;;;;8.45;3.05;;;;;;;;;;5051510;28;20032;-48
2022/01/01 12:15:07;;;;;;;6.93;3.00;;;;;;;;;;5051371;28;20029;-47
2022/01/01 12:17:46;;;;;;;5.80;3.05;;;;;;;;;;5051815;28;20068;-49
2022/01/01 12:20:16;;;;;;;5.53;3.03;;;;;;;;;;5051158;28;20032;-46
2022/01/01 12:22:45;;;;;;;6.70;3.25;;;;;;;;;;5051888;28;20037;-47
2022/01/01 12:25:15;;;;;;;6.82;3.60;;;;;;;;;;5051334;28;20044;-48
2022/01/01 12:27:47;;;;;;;6.32;2.72;;;;;;;;;;5053544;28;20025;-49
2022/01/01 12:30:16;;;;;;;6.13;3.03;;;;;;;;;;5055333;28;20087;-47
2022/01/01 12:32:44;;;;;;;4.45;2.63;;;;;;;;;;5055991;28;20466;-47
2022/01/01 12:35:18;;;;;;;5.55;3.03;;;;;;;;;;5055313;28;20021;-47
2022/01/01 12:37:44;;;;;;;5.70;2.58;;;;;;;;;;5055111;28;20443;-48
2022/01/01 12:40:10;;;;;;;3.58;2.65;;;;;;;;;;5055086;28;20413;-46
2022/01/01 12:42:37;;;;;;;4.15;2.90;;;;;;;;;;5055767;28;20039;-45
2022/01/01 12:45:07;;;;;;;3.53;2.45;;;;;;;;;;5055154;28;20029;-47
2022/01/01 12:47:34;;;;;;;3.92;2.58;;;;;;;;;;5055242;28;20083;-46
2022/01/01 12:50:03;;;;;;;8.63;2.80;;;;;;;;;;5054725;28;20052;-46
2022/01/01 12:52:29;;;;;;;3.90;2.78;;;;;;;;;;5055209;28;20147;-47
2022/01/01 12:55:02;;;;;;;4.18;2.58;;;;;;;;;;5055532;28;20029;-47
2022/01/01 12:57:28;;;;;;;5.25;2.78;;;;;;;;;;5055409;28;20066;-47
2022/01/01 12:59:55;;;;;;;4.50;2.70;;;;;;;;;;5055362;28;20039;-47
2022/01/01 13:02:21;;;;;;;5.90;2.97;;;;;;;;;;5054670;28;20025;-46
2022/01/01 13:04:48;;;;;;;3.75;2.83;;;;;;;;;;5055330;28;20021;-47
2022/01/01 13:07:18;;;;;;;6.00;3.25;;;;;;;;;;5054183;28;20040;-45
2022/01/01 13:09:44;;;;;;;4.15;2.58;;;;;;;;;;5055717;28;20047;-47
2022/01/01 13:12:13;;;;;;;5.38;2.72;;;;;;;;;;5054566;28;20103;-45
2022/01/01 13:14:39;;;;;;;7.10;3.25;;;;;;;;;;5061701;28;20025;-45
2022/01/01 13:17:06;;;;;;;6.70;3.38;;;;;;;;;;5073905;28;20025;-46
2022/01/01 13:19:33;;;;;;;3.85;2.33;;;;;;;;;;5072659;28;20028;-46
2022/01/01 13:21:59;;;;;;;4.10;2.60;;;;;;;;;;5074676;28;20449;-47
2022/01/01 13:24:30;;;;;;;3.47;2.22;;;;;;;;;;5059558;28;20021;-46
2022/01/01 13:26:57;;;;;;;5.82;3.05;;;;;;;;;;5055106;28;20429;-46
2022/01/01 13:29:24;;;;;;;5.28;2.90;;;;;;;;;;5054400;28;20425;-46
2022/01/01 13:31:53;;;;;;;5.88;2.85;;;;;;;;;;5061714;28;20024;-46
2022/01/01 13:34:20;;;;;;;5.03;2.80;;;;;;;;;;5054313;28;20066;-46
2022/01/01 13:36:46;;;;;;;7.47;2.75;;;;;;;;;;5054528;28;20084;-46
2022/01/01 13:39:16;;;;;;;5.28;2.53;;;;;;;;;;5052924;28;20094;-47
2022/01/01 13:41:43;;;;;;;6.30;3.13;;;;;;;;;;5054484;28;20033;-47
2022/01/01 13:44:20;;;;;;;8.48;3.75;;;;;;;;;;5054017;28;20416;-48
2022/01/01 13:46:46;;;;;;;5.05;2.53;;;;;;;;;;5054606;28;20100;-48
2022/01/01 13:49:13;;;;;;;4.80;3.00;;;;;;;;;;5053365;28;20021;-47
2022/01/01 13:51:39;;;;;;;3.85;2.63;;;;;;;;;;5054004;28;20032;-49
2022/01/01 13:54:09;;;;;;;5.50;3.33;;;;;;;;;;5054352;28;20427;-48
2022/01/01 13:56:36;;;;;;;4.55;2.60;;;;;;;;;;5054745;28;20033;-50
2022/01/01 13:59:04;;;;;;;6.90;3.03;;;;;;;;;;5053743;28;20159;-50
2022/01/01 14:01:30;;;;;;;6.82;2.72;;;;;;;;;;5054080;28;20021;-49
2022/01/01 14:03:57;;;;;;;3.67;2.40;;;;;;;;;;5054366;28;20138;-51
2022/01/01 14:06:24;;;;;;;4.88;2.88;;;;;;;;;;5053493;28;20421;-50
2022/01/01 14:08:57;;;;;;;5.97;3.00;;;;;;;;;;5054087;28;20064;-52
2022/01/01 14:11:26;;;;;;;8.60;3.08;;;;;;;;;;5053077;28;20060;-49
2022/01/01 14:14:02;;;;;;;4.90;2.65;;;;;;;;;;5053284;28;20054;-48
2022/01/01 14:16:30;;;;;;;5.13;2.90;;;;;;;;;;5036271;28;20121;-48
2022/01/01 14:18:57;;;;;;;3.80;2.20;;;;;;;;;;5053641;28;20395;-49
2022/01/01 14:21:25;;;;;;;6.28;2.50;;;;;;;;;;5053279;28;20029;-55
2022/01/01 14:23:54;;;;;;;5.40;2.42;;;;;;;;;;5053737;28;20032;-53
2022/01/01 14:26:22;;;;;;;5.43;3.15;;;;;;;;;;5053252;28;20019;-53
2022/01/01 14:28:49;;;;;;;5.10;2.85;;;;;;;;;;5053556;28;20466;-53
2022/01/01 14:31:15;;;;;;;5.15;2.60;;;;;;;;;;5053145;28;20025;-52
2022/01/01 14:33:41;;;;;;;3.72;2.80;;;;;;;;;;5053663;28;20021;-50
2022/01/01 14:36:08;;;;;;;4.72;3.13;;;;;;;;;;5052821;28;20025;-52
2022/01/01 14:38:35;;;;;;;3.45;2.25;;;;;;;;;;5053478;28;20029;-55
2022/01/01 14:41:02;;;;;;;3.72;2.47;;;;;;;;;;5053399;28;20036;-52
2022/01/01 14:43:28;;;;;;;3.45;2.60;;;;;;;;;;5052736;28;20437;-48
2022/01/01 14:45:55;;;;;;;5.85;3.05;;;;;;;;;;5053335;28;20036;-51